CheckWX is a tool to help pilots better visualize weather data.  It is not intended as a substitute for an official pre-flight weather briefing.

22:25:36 UTC

KPIT TAF
Pittsburgh International Airport
Pittsburgh, Pennsylvania, USA
KPIT 192039Z 1921/2024 15005KT P6SM BKN200 FM201300 15004KT P6SM SCT050

Oct-19@
21:00 UTC

Oct-19 @ 21:00 UTC

Oct-20@
13:00 UTC

Oct-20 @ 13:00 UTC

KPIT 192039Z 1921/2024 15005KT P6SM BKN200
Wind
  • 150° at 5 KTS
Cloud Levels
  • Broken at 20,000' AGL

Oct-20@
13:00 UTC

Oct-20 @ 13:00 UTC

Oct-21@
00:00 UTC

Oct-21 @ 00:00 UTC

FM201300 15004KT P6SM SCT050

From

From Standard forecast or significant change

Wind
  • 150° at 4 KTS
Cloud Levels
  • Scattered at 5,000' AGL